createdAt,value
2022-11-09T00:01:44.285Z,93.86
2022-11-09T00:04:13.040Z,93.92
2022-11-09T00:06:41.983Z,93.94
2022-11-09T00:09:11.382Z,93.88
2022-11-09T00:11:41.682Z,93.91
2022-11-09T00:14:15.975Z,93.91
2022-11-09T00:16:45.017Z,93.88
2022-11-09T00:19:15.026Z,93.91
2022-11-09T00:21:43.563Z,93.86
2022-11-09T00:24:12.186Z,93.83
2022-11-09T00:26:42.292Z,93.79
2022-11-09T00:29:11.023Z,93.88
2022-11-09T00:31:40.055Z,93.92
2022-11-09T00:34:08.861Z,94.02
2022-11-09T00:36:38.695Z,94.01
2022-11-09T00:39:09.707Z,94.06
2022-11-09T00:41:38.278Z,93.96
2022-11-09T00:44:07.377Z,93.77
2022-11-09T00:46:36.022Z,93.74
2022-11-09T00:49:06.667Z,93.73
2022-11-09T00:51:35.279Z,93.78
2022-11-09T00:54:07.475Z,93.83
2022-11-09T00:56:37.075Z,93.77
2022-11-09T00:59:08.154Z,93.84
2022-11-09T01:01:37.411Z,93.80
2022-11-09T01:04:06.988Z,93.84
2022-11-09T01:06:36.396Z,93.89
2022-11-09T01:09:06.259Z,93.84
2022-11-09T01:11:38.600Z,93.76
2022-11-09T01:14:10.220Z,93.79
2022-11-09T01:16:40.484Z,93.81
2022-11-09T01:19:09.234Z,93.85
2022-11-09T01:21:39.392Z,93.85
2022-11-09T01:24:09.144Z,93.77
2022-11-09T01:26:37.959Z,93.64
2022-11-09T01:29:07.752Z,93.61
2022-11-09T01:31:37.357Z,93.69
2022-11-09T01:34:06.144Z,93.73
2022-11-09T01:36:35.167Z,93.83
2022-11-09T01:39:03.786Z,93.82
2022-11-09T01:41:32.925Z,93.72
2022-11-09T01:44:10.993Z,93.59
2022-11-09T01:46:53.681Z,93.56
2022-11-09T01:49:43.718Z,93.59
2022-11-09T01:52:22.953Z,93.67
2022-11-09T01:55:02.951Z,93.71
2022-11-09T01:57:40.709Z,93.80
2022-11-09T02:00:14.999Z,93.71
2022-11-09T02:02:50.282Z,93.66
2022-11-09T02:05:23.195Z,93.67
2022-11-09T02:07:53.803Z,93.71
2022-11-09T02:10:37.473Z,93.71
2022-11-09T02:13:07.362Z,93.69
2022-11-09T02:15:44.427Z,93.67
2022-11-09T02:18:11.886Z,93.68
2022-11-09T02:20:50.280Z,93.68
2022-11-09T02:23:19.122Z,93.53
2022-11-09T02:26:03.971Z,93.57
2022-11-09T02:28:32.986Z,93.68
2022-11-09T02:31:03.442Z,93.71
2022-11-09T02:33:44.688Z,93.68
2022-11-09T02:36:14.650Z,93.59
2022-11-09T02:38:43.783Z,93.48
2022-11-09T02:41:12.882Z,93.28
2022-11-09T02:43:41.669Z,93.19
2022-11-09T02:46:10.485Z,93.17
2022-11-09T02:48:39.399Z,93.19
2022-11-09T02:51:09.133Z,93.09
2022-11-09T02:53:37.979Z,92.99
2022-11-09T02:56:07.527Z,92.96
2022-11-09T02:58:36.050Z,92.97
2022-11-09T03:01:06.179Z,92.97
2022-11-09T03:03:36.974Z,92.99
2022-11-09T03:06:06.122Z,92.97
2022-11-09T03:08:36.597Z,93.08
2022-11-09T03:11:06.182Z,93.12
2022-11-09T03:13:36.103Z,93.14
2022-11-09T03:16:09.268Z,93.17
2022-11-09T03:18:40.076Z,93.18
2022-11-09T03:21:11.127Z,93.08
2022-11-09T03:23:40.467Z,93.01
2022-11-09T03:26:10.759Z,93.04
2022-11-09T03:28:39.594Z,92.98
2022-11-09T03:31:08.448Z,92.93
2022-11-09T03:33:37.052Z,92.96
2022-11-09T03:36:07.136Z,92.89
2022-11-09T03:38:35.934Z,92.90
2022-11-09T03:41:06.355Z,92.96
2022-11-09T03:43:36.524Z,92.90
2022-11-09T03:46:06.176Z,92.79
2022-11-09T03:48:34.956Z,92.74
2022-11-09T03:51:04.244Z,92.74
2022-11-09T03:53:33.184Z,92.70
2022-11-09T03:56:01.879Z,92.75
2022-11-09T03:58:30.595Z,92.81
2022-11-09T04:00:59.761Z,92.72
2022-11-09T04:03:28.953Z,92.62
2022-11-09T04:06:01.219Z,92.47
2022-11-09T04:08:30.282Z,92.48
2022-11-09T04:11:00.544Z,92.47
2022-11-09T04:13:29.413Z,92.41
2022-11-09T04:15:58.964Z,92.52
2022-11-09T04:18:28.633Z,92.52
2022-11-09T04:20:59.702Z,92.64
2022-11-09T04:23:28.336Z,92.70
2022-11-09T04:25:59.491Z,92.76
2022-11-09T04:28:28.030Z,92.81
2022-11-09T04:31:02.096Z,92.77
2022-11-09T04:33:31.277Z,92.86
2022-11-09T04:36:08.344Z,92.88
2022-11-09T04:38:36.930Z,92.96
2022-11-09T04:41:07.940Z,92.97
2022-11-09T04:43:36.704Z,93.00
2022-11-09T04:46:06.029Z,93.00
2022-11-09T04:48:34.504Z,92.93
2022-11-09T04:51:05.641Z,92.90
2022-11-09T04:53:35.493Z,92.86
2022-11-09T04:56:05.854Z,92.81
2022-11-09T04:58:34.866Z,92.79
2022-11-09T05:01:12.487Z,92.76
2022-11-09T05:03:41.841Z,92.79
2022-11-09T05:06:29.464Z,92.70
2022-11-09T05:09:06.059Z,92.62
2022-11-09T05:11:35.535Z,92.55
2022-11-09T05:14:06.822Z,92.52
2022-11-09T05:16:36.663Z,92.56
2022-11-09T05:19:05.458Z,92.50
2022-11-09T05:21:34.086Z,92.51
2022-11-09T05:24:04.948Z,92.56
2022-11-09T05:26:37.347Z,92.68
2022-11-09T05:29:09.424Z,92.69
2022-11-09T05:31:39.419Z,92.77
2022-11-09T05:34:09.916Z,92.72
2022-11-09T05:36:38.395Z,92.65
2022-11-09T05:39:07.584Z,92.71
2022-11-09T05:41:36.748Z,92.83
2022-11-09T05:44:05.838Z,92.89
2022-11-09T05:46:34.537Z,92.93
2022-11-09T05:49:04.302Z,92.94
2022-11-09T05:51:33.998Z,92.86
2022-11-09T05:54:04.977Z,92.82
2022-11-09T05:56:35.445Z,92.76
2022-11-09T05:59:05.500Z,92.72
2022-11-09T06:01:34.786Z,92.64
2022-11-09T06:04:05.303Z,92.58
2022-11-09T06:06:34.713Z,92.48
2022-11-09T06:09:05.038Z,92.53
2022-11-09T06:11:36.699Z,92.56
2022-11-09T06:14:05.366Z,92.66
2022-11-09T06:16:35.056Z,92.65
2022-11-09T06:19:03.594Z,92.77
2022-11-09T06:21:33.218Z,92.85
2022-11-09T06:24:02.217Z,92.91
2022-11-09T06:26:33.091Z,92.98
2022-11-09T06:29:02.369Z,93.03
2022-11-09T06:31:31.993Z,93.02
2022-11-09T06:34:03.033Z,93.01
2022-11-09T06:36:31.824Z,93.12
2022-11-09T06:39:00.701Z,93.19
2022-11-09T06:41:30.652Z,93.24
2022-11-09T06:43:59.484Z,93.23
2022-11-09T06:46:30.977Z,93.24
2022-11-09T06:48:59.855Z,93.23
2022-11-09T06:51:29.583Z,93.25
2022-11-09T06:53:58.552Z,93.34
2022-11-09T06:56:29.805Z,93.41
2022-11-09T06:58:59.616Z,93.44
2022-11-09T07:01:29.359Z,93.47
2022-11-09T07:03:59.712Z,93.45
2022-11-09T07:06:30.037Z,93.51
2022-11-09T07:09:01.080Z,93.59
2022-11-09T07:11:34.247Z,93.65
2022-11-09T07:14:03.317Z,93.68
2022-11-09T07:16:32.114Z,93.68
2022-11-09T07:19:02.304Z,93.70
2022-11-09T07:21:33.604Z,93.75
2022-11-09T07:24:05.408Z,93.93
2022-11-09T07:26:34.653Z,94.44
2022-11-09T07:29:03.662Z,94.84
2022-11-09T07:31:33.672Z,94.82
2022-11-09T07:34:05.101Z,94.64
2022-11-09T07:36:36.356Z,93.98
2022-11-09T07:39:06.120Z,93.02
2022-11-09T07:41:35.796Z,92.00
2022-11-09T07:44:05.146Z,89.96
2022-11-09T07:46:35.614Z,88.35
2022-11-09T07:49:04.603Z,87.34
2022-11-09T07:51:35.163Z,85.88
2022-11-09T07:54:04.653Z,84.40
2022-11-09T07:56:33.459Z,83.47
2022-11-09T07:59:02.433Z,82.34
2022-11-09T08:01:32.165Z,81.56
2022-11-09T08:04:01.511Z,80.43
2022-11-09T08:06:31.114Z,79.86
2022-11-09T08:09:01.783Z,79.25
2022-11-09T08:11:30.634Z,78.43
2022-11-09T08:14:00.199Z,78.08
2022-11-09T08:16:32.281Z,77.67
2022-11-09T08:19:00.932Z,77.78
2022-11-09T08:21:30.035Z,77.39
2022-11-09T08:23:58.930Z,77.42
2022-11-09T08:26:28.113Z,77.49
2022-11-09T08:28:57.318Z,77.50
2022-11-09T08:31:26.151Z,77.53
2022-11-09T08:33:56.265Z,77.34
2022-11-09T08:36:27.478Z,77.63
2022-11-09T08:38:58.402Z,77.63
2022-11-09T08:41:29.009Z,77.67
2022-11-09T08:43:58.891Z,77.81
2022-11-09T08:46:27.870Z,77.73
2022-11-09T08:48:56.682Z,77.95
2022-11-09T08:51:25.671Z,77.80
2022-11-09T08:53:54.845Z,77.75
2022-11-09T08:56:23.796Z,77.62
2022-11-09T08:58:52.729Z,77.06
2022-11-09T09:01:21.768Z,76.60
2022-11-09T09:03:50.813Z,76.12
2022-11-09T09:06:21.448Z,75.75
2022-11-09T09:08:51.088Z,75.48
2022-11-09T09:11:22.207Z,75.13
2022-11-09T09:13:51.097Z,74.16
2022-11-09T09:16:20.607Z,73.60
2022-11-09T09:18:50.529Z,73.28
2022-11-09T09:24:43.487Z,73.45
2022-11-09T09:27:36.802Z,72.70
2022-11-09T09:37:42.575Z,71.22
2022-11-09T09:40:57.595Z,70.69
2022-11-09T09:44:06.615Z,70.92
2022-11-09T09:51:07.601Z,70.15
2022-11-09T09:54:10.048Z,70.01
2022-11-09T09:57:08.625Z,69.78
2022-11-09T10:00:30.767Z,69.95
2022-11-09T10:03:58.252Z,70.12
2022-11-09T10:15:09.333Z,70.39
2022-11-09T10:22:10.045Z,70.67
2022-11-09T10:25:20.791Z,70.88
2022-11-09T10:27:37.268Z,71.10
2022-11-09T10:30:15.334Z,71.14
2022-11-09T10:32:52.327Z,71.24
2022-11-09T10:35:40.929Z,71.48
2022-11-09T10:38:19.545Z,71.53
2022-11-09T10:41:09.702Z,71.47
2022-11-09T10:44:04.975Z,71.62
2022-11-09T10:47:15.073Z,71.35
2022-11-09T10:50:23.144Z,71.00
2022-11-09T10:53:24.889Z,70.90
2022-11-09T10:56:23.694Z,70.56
2022-11-09T10:59:46.999Z,69.80
2022-11-09T11:02:48.543Z,68.73
2022-11-09T11:05:39.761Z,67.71
2022-11-09T11:08:35.912Z,67.36
2022-11-09T11:11:37.065Z,66.81
2022-11-09T11:14:37.148Z,66.67
2022-11-09T11:17:40.279Z,66.23
2022-11-09T11:20:31.281Z,65.61
2022-11-09T11:23:21.688Z,65.36
2022-11-09T11:26:45.713Z,65.05
2022-11-09T11:29:50.867Z,64.76
2022-11-09T11:32:39.321Z,63.71
2022-11-09T11:35:52.807Z,63.49
2022-11-09T11:39:05.816Z,63.50
2022-11-09T11:42:50.764Z,63.58
2022-11-09T11:45:44.875Z,63.53
2022-11-09T11:49:06.202Z,63.52
2022-11-09T11:52:07.381Z,63.29
2022-11-09T11:55:39.281Z,63.11
2022-11-09T11:58:54.577Z,62.88
2022-11-09T12:01:53.494Z,62.72
2022-11-09T12:05:07.798Z,63.10
2022-11-09T12:08:38.606Z,63.34
2022-11-09T12:12:04.505Z,62.82
2022-11-09T12:15:21.305Z,62.88
2022-11-09T12:18:41.704Z,63.03
2022-11-09T12:21:44.130Z,62.83
2022-11-09T12:24:59.674Z,63.12
2022-11-09T12:28:20.295Z,63.21
2022-11-09T12:31:39.055Z,63.35
2022-11-09T12:34:43.497Z,63.54
2022-11-09T12:37:35.419Z,63.93
2022-11-09T12:40:33.177Z,64.17
2022-11-09T12:44:11.981Z,64.35
2022-11-09T12:47:17.631Z,64.57
2022-11-09T12:50:05.727Z,64.87
2022-11-09T12:52:53.657Z,64.72
2022-11-09T12:55:46.057Z,64.60
2022-11-09T12:58:36.954Z,64.80
2022-11-09T13:01:39.120Z,64.86
2022-11-09T13:04:27.411Z,64.95
2022-11-09T13:07:19.547Z,64.88
2022-11-09T13:10:30.675Z,64.98
2022-11-09T13:13:24.562Z,65.04
2022-11-09T13:16:27.905Z,65.15
2022-11-09T13:19:39.907Z,65.21
2022-11-09T13:22:33.639Z,65.42
2022-11-09T13:25:50.672Z,65.62
2022-11-09T13:28:42.385Z,65.78
2022-11-09T13:32:03.635Z,66.00
2022-11-09T13:35:02.342Z,66.19
2022-11-09T13:37:56.956Z,66.47
2022-11-09T13:40:51.524Z,66.56
2022-11-09T13:43:41.966Z,66.56
2022-11-09T13:46:37.354Z,66.77
2022-11-09T13:49:39.247Z,67.05
2022-11-09T13:52:55.404Z,67.19
2022-11-09T13:55:44.014Z,67.29
2022-11-09T13:58:38.953Z,67.48
2022-11-09T14:01:49.993Z,67.67
2022-11-09T14:04:42.412Z,67.98
2022-11-09T14:07:34.488Z,68.10
2022-11-09T14:11:02.722Z,68.15
2022-11-09T14:14:16.344Z,68.33
2022-11-09T14:17:30.414Z,68.63
2022-11-09T14:20:51.727Z,68.74
2022-11-09T14:23:39.617Z,69.14
2022-11-09T14:26:26.993Z,69.54
2022-11-09T14:29:24.914Z,69.67
2022-11-09T14:32:35.481Z,69.81
2022-11-09T14:35:39.134Z,69.97
2022-11-09T14:38:39.306Z,70.17
2022-11-09T14:41:28.225Z,70.45
2022-11-09T14:44:26.065Z,70.77
2022-11-09T14:47:23.564Z,71.19
2022-11-09T14:50:25.729Z,71.88
2022-11-09T14:53:19.470Z,71.79
2022-11-09T14:56:08.055Z,71.91
2022-11-09T14:58:55.275Z,72.05
2022-11-09T15:02:00.324Z,72.21
2022-11-09T15:05:01.900Z,72.39
2022-11-09T15:07:49.541Z,72.61
2022-11-09T15:10:38.324Z,72.94
2022-11-09T15:13:39.814Z,73.25
2022-11-09T15:16:30.886Z,73.55
2022-11-09T15:19:41.488Z,73.82
2022-11-09T15:23:04.409Z,74.10
2022-11-09T15:25:55.913Z,74.43
2022-11-09T15:28:47.575Z,74.69
2022-11-09T15:31:36.577Z,74.92
2022-11-09T15:34:26.674Z,75.20
2022-11-09T15:37:24.416Z,75.43
2022-11-09T15:40:15.126Z,75.73
2022-11-09T15:43:01.955Z,76.54
2022-11-09T15:45:50.760Z,76.48
2022-11-09T15:48:42.100Z,76.49
2022-11-09T15:51:27.610Z,76.50
2022-11-09T15:54:14.629Z,76.77
2022-11-09T15:57:02.073Z,76.90
2022-11-09T15:59:50.337Z,77.01
2022-11-09T16:02:39.680Z,77.13
2022-11-09T16:05:27.871Z,77.23
2022-11-09T16:08:15.105Z,77.36
2022-11-09T16:11:07.502Z,77.52
2022-11-09T16:13:54.614Z,77.65
2022-11-09T16:16:43.225Z,77.83
2022-11-09T16:19:30.304Z,78.02
2022-11-09T16:22:17.393Z,78.18
2022-11-09T16:25:04.703Z,78.32
2022-11-09T16:27:52.077Z,78.39
2022-11-09T16:30:46.586Z,78.62
2022-11-09T16:33:32.337Z,78.61
2022-11-09T16:36:24.008Z,78.77
2022-11-09T16:39:21.484Z,78.77
2022-11-09T16:42:34.133Z,78.83
2022-11-09T16:45:35.434Z,78.81
2022-11-09T16:48:26.365Z,78.80
2022-11-09T16:51:34.719Z,78.90
2022-11-09T16:54:23.296Z,78.88
2022-11-09T16:57:12.168Z,78.93
2022-11-09T17:00:01.149Z,78.95
2022-11-09T17:02:51.534Z,78.95
2022-11-09T17:05:40.380Z,79.00
2022-11-09T17:08:28.144Z,79.07
2022-11-09T17:11:18.136Z,79.09
2022-11-09T17:14:07.630Z,79.07
2022-11-09T17:16:58.938Z,79.16
2022-11-09T17:19:50.288Z,79.15
2022-11-09T17:22:43.136Z,79.14
2022-11-09T17:25:27.694Z,79.11
2022-11-09T17:28:15.657Z,79.08
2022-11-09T17:31:18.953Z,78.97
2022-11-09T17:34:07.490Z,78.87
2022-11-09T17:37:04.109Z,78.94
2022-11-09T17:39:45.850Z,78.88
2022-11-09T17:42:36.221Z,78.91
2022-11-09T17:45:25.603Z,78.88
2022-11-09T17:48:14.997Z,78.80
2022-11-09T17:51:03.555Z,78.91
2022-11-09T17:53:51.696Z,78.92
2022-11-09T17:56:40.065Z,78.90
2022-11-09T17:59:28.974Z,79.06
2022-11-09T18:02:18.484Z,79.07
2022-11-09T18:05:07.424Z,79.02
2022-11-09T18:07:57.304Z,78.96
2022-11-09T18:10:47.273Z,79.07
2022-11-09T18:13:34.730Z,79.12
2022-11-09T18:16:26.267Z,79.22
2022-11-09T18:19:15.774Z,79.28
2022-11-09T18:22:07.471Z,79.41
2022-11-09T18:24:55.401Z,79.45
2022-11-09T18:27:43.513Z,79.54
2022-11-09T18:30:31.918Z,79.53
2022-11-09T18:33:19.401Z,79.57
2022-11-09T18:36:11.848Z,79.53
2022-11-09T18:39:01.884Z,79.61
2022-11-09T18:41:49.497Z,79.68
2022-11-09T18:44:38.752Z,79.72
2022-11-09T18:47:28.673Z,79.85
2022-11-09T18:50:17.910Z,79.91
2022-11-09T18:53:06.288Z,79.99
2022-11-09T18:56:06.567Z,80.12
2022-11-09T18:58:55.371Z,80.30
2022-11-09T19:01:43.367Z,80.53
2022-11-09T19:04:32.783Z,80.70
2022-11-09T19:07:21.058Z,80.85
2022-11-09T19:10:10.405Z,81.04
2022-11-09T19:12:59.188Z,81.18
2022-11-09T19:15:48.513Z,81.36
2022-11-09T19:18:36.670Z,81.47
2022-11-09T19:21:42.591Z,81.68
2022-11-09T19:24:30.861Z,81.92
2022-11-09T19:27:19.183Z,82.03
2022-11-09T19:30:09.759Z,82.18
2022-11-09T19:32:57.643Z,82.38
2022-11-09T19:36:15.188Z,82.58
2022-11-09T19:38:41.098Z,82.77
2022-11-09T19:41:30.034Z,82.90
2022-11-09T19:44:19.497Z,82.92
2022-11-09T19:47:06.873Z,83.03
2022-11-09T19:49:54.857Z,83.12
2022-11-09T19:52:43.222Z,83.27
2022-11-09T19:55:30.480Z,83.45
2022-11-09T19:58:17.859Z,83.51
2022-11-09T20:01:09.131Z,83.49
2022-11-09T20:03:58.351Z,83.58
2022-11-09T20:06:45.728Z,83.67
2022-11-09T20:09:33.210Z,83.71
2022-11-09T20:12:41.248Z,83.84
2022-11-09T20:15:28.830Z,84.05
2022-11-09T20:18:18.768Z,84.11
2022-11-09T20:21:06.796Z,84.21
2022-11-09T20:23:54.129Z,84.37
2022-11-09T20:26:43.691Z,84.68
2022-11-09T20:29:31.250Z,84.90
2022-11-09T20:32:21.501Z,85.04
2022-11-09T20:35:09.468Z,85.03
2022-11-09T20:37:57.867Z,85.08
2022-11-09T20:40:55.283Z,85.11
2022-11-09T20:43:43.770Z,85.12
2022-11-09T20:46:35.816Z,85.14
2022-11-09T20:49:20.430Z,85.16
2022-11-09T20:52:07.639Z,85.26
2022-11-09T20:54:55.447Z,85.39
2022-11-09T20:57:44.206Z,85.44
2022-11-09T21:00:33.063Z,85.56
2022-11-09T21:03:21.807Z,85.63
2022-11-09T21:06:10.090Z,85.63
2022-11-09T21:08:59.974Z,85.65
2022-11-09T21:12:06.354Z,85.73
2022-11-09T21:14:53.788Z,85.95
2022-11-09T21:17:41.764Z,86.01
2022-11-09T21:20:29.409Z,86.02
2022-11-09T21:23:18.250Z,86.15
2022-11-09T21:26:25.085Z,86.25
2022-11-09T21:29:35.134Z,86.30
2022-11-09T21:32:23.376Z,86.35
2022-11-09T21:35:10.883Z,86.36
2022-11-09T21:37:58.828Z,86.38
2022-11-09T21:40:46.423Z,86.44
2022-11-09T21:43:35.543Z,86.59
2022-11-09T21:46:23.963Z,86.66
2022-11-09T21:49:13.429Z,86.73
2022-11-09T21:52:00.655Z,86.77
2022-11-09T21:54:48.189Z,86.85
2022-11-09T21:57:36.727Z,86.97
2022-11-09T22:00:24.485Z,87.12
2022-11-09T22:03:12.731Z,87.18
2022-11-09T22:05:59.898Z,87.21
2022-11-09T22:08:47.888Z,87.27
2022-11-09T22:11:55.587Z,87.38
2022-11-09T22:15:02.816Z,87.47
2022-11-09T22:17:53.641Z,87.56
2022-11-09T22:20:54.493Z,87.78
2022-11-09T22:23:42.284Z,87.77
2022-11-09T22:26:31.118Z,87.87
2022-11-09T22:29:20.594Z,88.12
2022-11-09T22:32:08.361Z,88.40
2022-11-09T22:34:55.918Z,88.50
2022-11-09T22:37:42.408Z,88.53
2022-11-09T22:40:31.372Z,88.43
2022-11-09T22:43:19.149Z,88.40
2022-11-09T22:46:14.628Z,88.27
2022-11-09T22:49:03.618Z,88.18
2022-11-09T22:51:52.572Z,88.24
2022-11-09T22:54:41.083Z,88.39
2022-11-09T22:57:29.285Z,88.48
2022-11-09T23:00:19.043Z,88.60
2022-11-09T23:03:06.306Z,88.62
2022-11-09T23:05:58.168Z,88.71
2022-11-09T23:08:45.349Z,88.73
2022-11-09T23:11:32.482Z,88.84
2022-11-09T23:14:21.569Z,88.95
2022-11-09T23:17:10.814Z,89.11
2022-11-09T23:19:59.892Z,89.22
2022-11-09T23:22:47.458Z,89.46
2022-11-09T23:25:56.359Z,89.63
2022-11-09T23:28:44.740Z,89.70
2022-11-09T23:31:33.721Z,89.83
2022-11-09T23:34:20.433Z,89.94
2022-11-09T23:37:07.273Z,90.05
2022-11-09T23:39:54.238Z,90.05
2022-11-09T23:42:41.898Z,90.07
2022-11-09T23:45:29.362Z,90.07
2022-11-09T23:48:19.057Z,90.06
2022-11-09T23:51:06.785Z,90.04
2022-11-09T23:53:54.190Z,90.05
2022-11-09T23:56:42.295Z,90.09
2022-11-09T23:59:30.065Z,89.95
